Sitka, South Dakota
Current Conditions -  °F | °C
As of 7:52 PM on Sunday 25 Jan 2015 (Local Time) from KMBG Reporting Station
Clear Clear  
Wind Chill: -2°   Ceiling: Unl
Heat Index:   Visibility: 10mi
Dew Point: -1°   Wind: 8mph
Humidity: 82%   Direction: 150°SSE
Pressure: 29.88"   Gusts: NA
Location:  45.4184°N, 100.09°W
Report Text: KMBG 260152Z AUTO 15007KT 10SM CLR 02/M01 A2988 RMK AO2 SLP135 T00171011
Loading
Personal Weather Stations






























Interactive Weather Map New forecast layout! Learn more

10-Day Weather Forecast

Advertisements
Track Severe Weather on mobile